Time;durP1;ratioP1;P1;durP2;ratioP2;P2;SDS_P1;SDS_P2;PMS_P1;PMS_P2;Temp;Humidity;BMP_temperature;BMP_pressure;BME280_temperature;BME280_humidity;BME280_pressure;Samples;Min_cycle;Max_cycle;Signal;HPM_P1;HPM_P2
2022/05/02 06:48:43;;;;;;;;;45.50;34.50;;;;;;;;6281683;22;45602;-83
2022/05/02 06:58:07;;;;;;;;;;;;;;;;;;;;;
2022/05/02 07:00:58;;;;;;;;;35.75;31.50;;;;;;;;6131930;23;74139;-82
2022/05/02 07:03:56;;;;;;;;;38.75;32.75;;;;;;;;6127213;23;45855;-81
2022/05/02 07:06:33;;;;;;;;;22.50;15.75;;;;;;;;6177118;23;45431;-81
2022/05/02 07:09:28;;;;;;;;;38.25;33.75;;;;;;;;6206720;22;45666;-82
2022/05/02 07:12:06;;;;;;;;;41.50;32.25;;;;;;;;6236678;22;45872;-80
2022/05/02 07:14:40;;;;;;;;;38.00;30.75;;;;;;;;6245775;22;45343;-82
2022/05/02 07:17:32;;;;;;;;;40.00;32.00;;;;;;;;6275632;22;45548;-83
2022/05/02 07:34:56;;;;;;;;;39.00;30.25;;;;;;;;6263240;22;45448;-82
2022/05/02 07:37:41;;;;;;;;;37.00;30.75;;;;;;;;6269570;22;45551;-82
2022/05/02 07:40:10;;;;;;;;;37.00;31.50;;;;;;;;6268103;22;45421;-83
2022/05/02 07:49:09;;;;;;;;;37.75;32.50;;;;;;;;6231029;22;45569;-84
2022/05/02 07:54:41;;;;;;;;;47.75;33.25;;;;;;;;6271180;22;45652;-76
2022/05/02 07:57:32;;;;;;;;;32.00;30.50;;;;;;;;6269712;22;45866;-80
2022/05/02 07:59:59;;;;;;;;;51.25;35.25;;;;;;;;6249950;22;45861;-81
2022/05/02 08:02:27;;;;;;;;;43.50;30.25;;;;;;;;6269106;22;45358;-89
2022/05/02 08:05:03;;;;;;;;;38.50;32.50;;;;;;;;6270621;22;46004;-76
2022/05/02 08:07:37;;;;;;;;;39.25;33.00;;;;;;;;6294352;22;46897;-83
2022/05/02 08:17:35;;;;;;;;;;;;;;;;;;;;;
2022/05/02 08:20:10;;;;;;;;;36.50;30.50;;;;;;;;6156903;23;45613;-80
2022/05/02 08:47:16;;;;;;;;;32.25;29.50;;;;;;;;6233587;22;45252;-83
2022/05/02 09:18:48;;;;;;;;;40.50;31.50;;;;;36.75;18.73;101362.91;6213812;22;46594;-79
2022/05/02 09:35:22;;;;;;;;;37.50;29.75;;;;;44.30;14.11;101356.78;6185378;22;46285;-83
2022/05/02 09:37:50;;;;;;;;;34.00;29.00;;;;;42.59;15.26;101354.31;6311647;22;45350;-83
2022/05/02 09:40:20;;;;;;;;;39.50;32.25;;;;;42.38;15.89;101337.16;6339257;22;45430;-82
2022/05/02 09:42:46;;;;;;;;;41.00;33.75;;;;;42.31;15.50;101347.78;6311365;22;45457;-83
2022/05/02 09:52:06;;;;;;;;;38.00;31.50;;;;;44.72;13.74;101338.75;6343035;22;45795;-83
2022/05/02 09:58:07;;;;;;;;;36.00;29.50;;;;;43.95;13.97;101336.19;6342918;22;45635;-83
2022/05/02 10:01:09;;;;;;;;;31.25;28.50;;;;;45.25;13.07;101329.59;6283337;22;45874;-83
2022/05/02 10:04:01;;;;;;;;;32.25;29.00;;;;;44.70;12.82;101325.16;6285756;22;45310;-80
2022/05/02 10:06:50;;;;;;;;;32.75;27.50;;;;;43.98;13.67;101330.00;6327880;22;45851;-82
2022/05/02 10:09:22;;;;;;;;;33.00;29.50;;;;;43.20;14.12;101329.06;6314676;22;45768;-80
2022/05/02 10:11:52;;;;;;;;;31.75;29.50;;;;;42.64;13.69;101326.44;6330227;22;45374;-82
2022/05/02 10:14:51;;;;;;;;;34.50;30.75;;;;;41.82;14.04;101326.00;6329271;22;45408;-82
2022/05/02 13:07:26;;;;;;;;;26.00;23.75;;;;;30.16;25.20;101236.00;5103561;27;45535;-80
2022/05/02 13:59:06;;;;;;;;;;;;;;;;;;;;;
2022/05/02 14:02:57;;;;;;;;;;;;;;;;;;;;;
2022/05/02 14:05:26;;;;;;;;;24.75;19.50;;;;;30.33;24.22;101203.59;5076661;27;45865;-77
2022/05/02 14:08:10;;;;;;;;;21.75;21.25;;;;;30.25;24.17;101193.00;5086350;27;46291;-77
2022/05/02 14:10:54;;;;;;;;;21.00;19.25;;;;;35.47;20.82;101191.31;5082266;27;45533;-79
2022/05/02 14:13:20;;;;;;;;;24.75;23.25;;;;;30.28;23.86;101196.13;5083323;27;45778;-78
2022/05/02 14:15:49;;;;;;;;;24.75;20.50;;;;;30.08;23.98;101198.97;5083757;27;45930;-80
2022/05/02 14:21:51;;;;;;;;;25.75;21.50;;;;;30.04;23.70;101195.06;5032792;28;45581;-80
2022/05/02 14:24:18;;;;;;;;;22.00;20.25;;;;;30.00;23.75;101195.69;5073633;27;45442;-81
2022/05/02 14:26:57;;;;;;;;;23.50;19.75;;;;;30.02;23.71;101188.97;5067648;28;45528;-81
2022/05/02 14:29:29;;;;;;;;;29.25;20.25;;;;;29.96;24.34;101187.13;5066174;27;45459;-79
2022/05/02 14:32:04;;;;;;;;;22.75;21.00;;;;;30.25;23.70;101188.38;5082857;27;45375;-79
2022/05/02 14:34:40;;;;;;;;;20.75;19.50;;;;;29.97;24.02;101187.94;5088772;27;45439;-79
2022/05/02 14:37:17;;;;;;;;;24.50;20.25;;;;;29.91;24.27;101184.19;5084271;27;45524;-81
2022/05/02 14:39:53;;;;;;;;;27.00;22.50;;;;;29.89;23.87;101183.56;5087181;27;45402;-80
2022/05/02 14:42:23;;;;;;;;;20.25;19.00;;;;;29.99;24.18;101183.13;5082873;27;46319;-81
2022/05/02 14:46:22;;;;;;;;;23.75;19.00;;;;;30.02;24.05;101179.97;5069311;27;45427;-80
2022/05/02 14:48:41;;;;;;;;;20.50;19.00;;;;;30.21;23.90;101176.28;5047650;27;45448;-80
2022/05/02 14:51:28;;;;;;;;;;;;;;;;;;;;;
2022/05/02 14:54:00;;;;;;;;;22.00;16.50;;;;;30.71;23.55;101168.91;5085930;27;73712;-81
2022/05/02 14:56:39;;;;;;;;;21.00;18.00;;;;;41.22;16.01;101145.44;5088606;27;45379;-80
2022/05/02 14:59:10;;;;;;;;;25.50;19.50;;;;;33.44;20.44;101177.06;5038438;28;45337;-80
2022/05/02 15:01:40;;;;;;;;;21.75;20.00;;;;;30.99;22.79;101181.19;5052619;28;45420;-80
2022/05/02 15:04:14;;;;;;;;;21.00;18.50;;;;;30.67;22.55;101170.44;5055556;28;47479;-84
2022/05/02 15:06:42;;;;;;;;;23.75;20.75;;;;;30.18;23.18;101163.06;5055679;28;45398;-83
2022/05/02 15:10:14;;;;;;;;;18.50;15.50;;;;;30.71;22.82;101159.88;5047130;28;45615;-82
2022/05/02 15:15:53;;;;;;;;;22.25;18.75;;;;;30.28;23.61;101170.75;4913142;28;45890;-82
2022/05/02 15:21:06;;;;;;;;;21.00;17.50;;;;;30.03;23.46;101157.13;5220616;22;45856;-79
2022/05/02 15:23:34;;;;;;;;;18.25;17.00;;;;;30.16;23.20;101143.38;4982761;28;45768;-80
2022/05/02 15:25:59;;;;;;;;;18.25;18.25;;;;;30.38;23.61;101158.31;5001829;28;46290;-80
2022/05/02 15:36:53;;;;;;;;;23.00;21.00;;;;;30.33;23.39;101151.84;5021733;28;45475;-75
2022/05/02 15:39:25;;;;;;;;;23.25;20.50;;;;;30.26;23.41;101161.97;5022027;28;45313;-78
2022/05/02 15:41:57;;;;;;;;;22.75;21.25;;;;;31.20;22.16;101158.94;5021947;28;45299;-78
2022/05/02 15:44:37;;;;;;;;;21.75;21.00;;;;;31.35;22.30;101161.25;5020764;28;45344;-78
2022/05/02 15:47:03;;;;;;;;;22.50;19.75;;;;;30.72;22.86;101154.22;5004374;28;46978;-78
2022/05/02 15:49:33;;;;;;;;;20.75;18.50;;;;;30.75;22.72;101152.94;5021849;28;45520;-78
2022/05/02 15:52:11;;;;;;;;;21.25;19.00;;;;;31.57;22.29;101159.72;5022420;28;45405;-79
2022/05/02 15:54:53;;;;;;;;;21.75;19.25;;;;;31.88;22.02;101143.06;5007292;28;45444;-79
2022/05/02 15:57:33;;;;;;;;;26.75;19.50;;;;;30.79;22.73;101145.94;5007729;28;47164;-79
2022/05/02 16:00:14;;;;;;;;;20.00;19.50;;;;;30.57;22.93;101155.63;5025788;28;45415;-79
2022/05/02 16:02:43;;;;;;;;;22.75;18.75;;;;;30.62;22.83;101155.78;5025864;28;45234;-79
2022/05/02 16:05:15;;;;;;;;;25.00;19.50;;;;;30.95;22.62;101145.38;5025570;28;45226;-79
2022/05/02 16:10:40;;;;;;;;;23.25;20.25;;;;;31.77;21.81;101151.25;5022066;28;45512;-78
2022/05/02 16:13:10;;;;;;;;;21.00;17.75;;;;;30.74;22.41;101154.00;5003856;28;45496;-79
2022/05/02 16:15:49;;;;;;;;;18.25;16.75;;;;;30.24;22.81;101147.72;5021666;28;45163;-79
2022/05/02 16:18:22;;;;;;;;;20.25;18.50;;;;;43.08;13.27;101130.53;5003545;28;47486;-78
2022/05/02 16:20:49;;;;;;;;;24.50;17.75;;;;;44.78;12.86;101131.28;5002096;28;45669;-78
2022/05/02 16:23:14;;;;;;;;;22.75;20.00;;;;;45.70;11.68;101135.69;5003965;28;45425;-78
2022/05/02 16:25:42;;;;;;;;;21.75;18.50;;;;;46.35;11.55;101142.94;5003510;28;45331;-78
2022/05/02 16:28:22;;;;;;;;;21.75;19.25;;;;;46.40;10.54;101139.16;5021403;28;46135;-79
2022/05/02 16:30:52;;;;;;;;;25.25;21.50;;;;;46.54;10.85;101137.75;5003293;28;45500;-78
2022/05/02 16:33:22;;;;;;;;;23.00;20.25;;;;;46.09;11.19;101131.84;5003219;28;47044;-77
2022/05/02 16:35:52;;;;;;;;;17.00;16.00;;;;;46.28;11.44;101139.03;5021520;28;45424;-78
2022/05/02 16:38:31;;;;;;;;;21.75;21.00;;;;;47.65;10.82;101145.78;5017704;28;46238;-78
2022/05/02 16:41:01;;;;;;;;;20.50;17.75;;;;;47.77;10.10;101137.47;4999984;28;45832;-78
2022/05/02 16:43:31;;;;;;;;;23.25;21.50;;;;;47.69;10.51;101137.53;5019897;28;45534;-79
2022/05/02 16:46:04;;;;;;;;;22.00;20.50;;;;;47.49;10.44;101134.41;5007462;28;45755;-78
2022/05/02 16:48:31;;;;;;;;;23.00;20.75;;;;;47.43;9.98;101133.00;5002636;28;46897;-79
2022/05/02 16:50:58;;;;;;;;;22.50;19.75;;;;;34.72;17.66;101157.09;5011460;28;45458;-79
2022/05/02 16:53:23;;;;;;;;;22.25;22.25;;;;;31.85;20.41;101159.94;5010356;28;45471;-77
2022/05/02 16:55:54;;;;;;;;;25.00;20.25;;;;;30.21;22.03;101161.81;5011257;28;45506;-77
2022/05/02 16:58:23;;;;;;;;;26.75;22.50;;;;;29.78;22.83;101167.94;5011997;28;45554;-76
2022/05/02 17:00:55;;;;;;;;;23.25;18.00;;;;;29.08;23.40;101155.28;5008224;28;45709;-76
2022/05/02 17:03:31;;;;;;;;;24.25;22.00;;;;;28.94;23.68;101158.06;5004443;28;46436;-76
2022/05/02 17:06:01;;;;;;;;;27.75;25.25;;;;;28.73;24.04;101165.63;5022539;28;45460;-77
2022/05/02 17:08:28;;;;;;;;;25.25;24.75;;;;;28.53;24.29;101162.91;5006025;28;47425;-77
2022/05/02 17:10:53;;;;;;;;;35.25;27.75;;;;;28.59;24.26;101152.03;5021436;28;45348;-78
2022/05/02 17:13:30;;;;;;;;;31.75;29.25;;;;;28.53;24.35;101157.47;5020426;28;45430;-78
2022/05/02 17:16:23;;;;;;;;;33.25;28.50;;;;;28.41;24.68;101161.91;5020576;28;45431;-76
2022/05/02 17:18:49;;;;;;;;;27.25;26.25;;;;;28.48;24.38;101162.72;4990204;28;47293;-77
2022/05/02 17:21:16;;;;;;;;;35.75;30.25;;;;;28.13;25.20;101157.50;5007560;28;45472;-77
2022/05/02 17:23:47;;;;;;;;;27.75;25.50;;;;;28.28;25.15;101163.56;5004872;28;45595;-78
2022/05/02 17:26:17;;;;;;;;;31.75;26.50;;;;;27.99;25.64;101157.69;5013172;28;45257;-78
2022/05/02 17:28:44;;;;;;;;;23.50;20.75;;;;;28.74;25.02;101159.97;5008584;28;46607;-78
2022/05/02 17:31:11;;;;;;;;;32.50;25.50;;;;;28.15;24.99;101149.13;5006093;28;45632;-78
2022/05/02 17:33:46;;;;;;;;;39.25;30.50;;;;;28.03;25.47;101145.38;5001553;28;45393;-77
2022/05/02 17:36:17;;;;;;;;;27.75;26.75;;;;;28.01;25.46;101147.44;5002137;28;45400;-75
2022/05/02 17:48:40;;;;;;;;;31.00;26.00;;;;;-143.39;100.00;63593.47;4845625;28;278983134;-75
2022/05/02 17:57:38;;;;;;;;;;;;;;;-143.39;100.00;63593.47;2;233479288;233479288;-75
2022/05/02 18:01:04;;;;;;;;;33.50;21.50;;;;;27.43;25.70;101166.91;2;195496525;195496525;-75
2022/05/02 18:03:33;;;;;;;;;25.75;23.50;;;;;27.21;26.18;101172.69;5010219;28;45248;-75
2022/05/02 18:05:59;;;;;;;;;22.25;19.25;;;;;27.32;25.78;101177.50;5021201;28;45376;-74
2022/05/02 18:08:39;;;;;;;;;25.75;23.00;;;;;27.25;25.73;101172.06;5019596;28;45401;-75
2022/05/02 18:11:08;;;;;;;;;31.25;24.75;;;;;27.01;26.22;101180.72;5019232;28;45550;-74
2022/05/02 18:13:42;;;;;;;;;22.25;22.25;;;;;26.94;26.00;101186.09;5019126;28;45443;-75
2022/05/02 18:16:37;;;;;;;;;29.00;24.50;;;;;26.81;26.31;101175.97;5018992;28;45446;-75
2022/05/02 18:19:10;;;;;;;;;25.75;20.50;;;;;26.89;25.88;101176.84;5016786;28;46241;-75
2022/05/02 18:21:42;;;;;;;;;33.25;27.75;;;;;26.62;25.99;101183.97;5017952;28;46561;-76
2022/05/02 18:24:13;;;;;;;;;25.25;23.50;;;;;26.76;26.14;101177.63;5012761;28;45504;-76
2022/05/02 18:26:51;;;;;;;;;36.50;27.25;;;;;26.99;25.82;101182.78;5016460;28;45506;-77
2022/05/02 18:29:19;;;;;;;;;28.75;24.75;;;;;26.81;26.19;101185.97;5003949;28;47458;-76
2022/05/02 18:31:45;;;;;;;;;30.00;21.00;;;;;26.89;26.34;101191.22;5020745;28;45459;-76
2022/05/02 18:34:13;;;;;;;;;34.25;29.25;;;;;26.82;26.15;101193.91;5012589;28;45474;-76
2022/05/02 18:36:55;;;;;;;;;32.50;27.25;;;;;26.76;26.78;101189.28;5019366;28;45543;-76
2022/05/02 18:39:28;;;;;;;;;30.50;24.25;;;;;38.73;16.02;101154.84;5001069;28;47445;-77
2022/05/02 18:42:00;;;;;;;;;34.50;29.50;;;;;31.11;21.26;101190.31;5016391;28;45385;-77
2022/05/02 18:44:32;;;;;;;;;31.75;27.00;;;;;28.26;24.38;101194.69;5020442;28;45559;-77
2022/05/02 18:55:15;;;;;;;;;34.75;30.00;;;;;26.73;26.07;101196.97;5021217;28;45512;-76
2022/05/02 18:57:56;;;;;;;;;33.50;31.25;;;;;27.42;25.55;101197.78;5022496;28;45521;-76
2022/05/02 19:00:30;;;;;;;;;43.25;34.50;;;;;26.33;26.20;101193.13;4999563;28;47365;-76
2022/05/02 19:03:05;;;;;;;;;42.00;31.75;;;;;26.13;26.72;101189.38;4985216;28;45473;-78
2022/05/02 19:05:31;;;;;;;;;37.50;31.00;;;;;26.16;26.60;101195.22;5022989;28;45400;-77
2022/05/02 19:08:01;;;;;;;;;41.25;34.00;;;;;27.75;24.61;101195.22;5022420;28;45483;-76
2022/05/02 19:10:28;;;;;;;;;46.75;36.00;;;;;27.03;25.62;101197.63;5022095;28;46427;-77
2022/05/02 19:13:03;;;;;;;;;44.50;36.00;;;;;28.37;24.85;101194.09;5004696;28;45837;-76
2022/05/02 19:15:30;;;;;;;;;38.25;32.25;;;;;27.31;25.18;101211.94;5020209;28;45251;-77
2022/05/02 19:17:58;;;;;;;;;39.00;31.75;;;;;26.74;25.88;101210.34;5022312;28;45549;-77
2022/05/02 19:20:25;;;;;;;;;44.00;35.00;;;;;26.55;26.11;101207.47;5013408;28;48120;-80
2022/05/02 19:23:14;;;;;;;;;46.50;35.25;;;;;26.48;26.42;101218.25;5003012;28;45574;-82
2022/05/02 19:25:46;;;;;;;;;46.50;36.50;;;;;26.32;26.55;101205.81;5020496;28;45497;-82
2022/05/02 19:28:24;;;;;;;;;42.25;35.00;;;;;26.50;26.21;101209.91;5005719;28;45509;-82
2022/05/02 19:30:51;;;;;;;;;50.25;36.75;;;;;27.06;25.32;101208.88;4994605;28;47866;-82
2022/05/02 19:33:17;;;;;;;;;40.75;31.25;;;;;26.92;25.58;101222.56;5018446;28;45353;-80
2022/05/02 19:41:24;;;;;;;;;40.00;32.00;;;;;26.83;25.66;101217.28;5021086;28;45230;-79
2022/05/02 19:43:56;;;;;;;;;35.75;30.25;;;;;26.79;26.00;101225.97;4998900;28;45708;-80
2022/05/02 19:46:23;;;;;;;;;34.25;27.75;;;;;26.74;26.03;101223.88;5031715;28;45360;-80
2022/05/02 19:48:50;;;;;;;;;38.50;31.25;;;;;26.77;25.53;101228.03;5018742;28;45479;-80
2022/05/02 19:51:22;;;;;;;;;34.25;30.00;;;;;26.83;25.63;101228.13;5020130;28;45655;-80
2022/05/02 19:53:49;;;;;;;;;36.50;29.50;;;;;27.25;25.03;101229.00;5001696;28;47022;-80
2022/05/02 19:56:14;;;;;;;;;39.50;31.50;;;;;27.31;24.71;101235.53;5021471;28;45455;-80
2022/05/02 19:58:40;;;;;;;;;31.50;27.00;;;;;25.97;26.40;101258.97;5022989;28;44840;-80
2022/05/02 20:01:07;;;;;;;;;27.00;24.25;;;;;25.74;27.02;101254.75;5022328;28;45541;-80
2022/05/02 20:03:34;;;;;;;;;26.25;23.00;;;;;26.17;26.53;101252.91;5015683;28;45558;-80
2022/05/02 20:06:04;;;;;;;;;44.50;31.75;;;;;38.04;16.63;101226.34;5004017;28;45450;-81
2022/05/02 20:08:34;;;;;;;;;37.75;32.00;;;;;29.61;22.20;101251.16;5023643;28;45285;-81
2022/05/02 20:11:03;;;;;;;;;31.50;28.25;;;;;26.70;25.70;101260.53;5015664;28;45329;-80
2022/05/02 20:13:30;;;;;;;;;37.25;32.25;;;;;26.21;26.74;101251.50;5019877;28;45678;-80
2022/05/02 20:15:56;;;;;;;;;44.00;33.25;;;;;26.04;27.23;101272.56;5015909;28;45393;-79
2022/05/02 20:18:22;;;;;;;;;43.75;31.75;;;;;25.94;27.32;101264.78;5004122;28;45555;-80
2022/05/02 20:20:56;;;;;;;;;40.00;32.25;;;;;25.73;27.41;101263.88;5015991;28;45412;-80
2022/05/02 20:23:55;;;;;;;;;41.00;34.50;;;;;24.95;28.69;101263.41;5020992;28;45408;-81
2022/05/02 20:26:20;;;;;;;;;44.00;35.25;;;;;25.42;28.57;101258.66;5012133;28;45400;-82
2022/05/02 20:28:46;;;;;;;;;43.25;35.00;;;;;25.44;28.88;101272.84;4987621;28;45722;-82
2022/05/02 20:31:12;;;;;;;;;44.25;34.25;;;;;25.39;28.66;101270.72;5019757;28;46028;-81
2022/05/02 20:36:39;;;;;;;;;46.00;35.25;;;;;26.61;27.34;101268.97;5019831;28;45400;-81
2022/05/02 20:39:05;;;;;;;;;41.50;35.25;;;;;26.19;27.65;101264.41;5010591;28;45332;-81
2022/05/02 20:41:32;;;;;;;;;42.50;33.00;;;;;25.52;29.26;101272.72;5018671;28;45710;-81
2022/05/02 20:44:08;;;;;;;;;45.25;34.75;;;;;25.48;29.06;101277.69;5002082;28;45849;-81
2022/05/02 20:46:36;;;;;;;;;47.75;38.00;;;;;25.33;29.30;101272.28;5016962;28;45325;-81
2022/05/02 20:49:10;;;;;;;;;45.00;34.50;;;;;25.37;29.57;101280.88;5020314;28;45475;-81
2022/05/02 20:51:44;;;;;;;;;48.25;37.25;;;;;25.19;30.03;101275.00;5002097;28;48231;-81
2022/05/02 20:54:11;;;;;;;;;44.25;36.50;;;;;24.77;30.23;101280.94;5016090;28;45854;-81
2022/05/02 20:56:37;;;;;;;;;47.00;35.25;;;;;25.06;29.48;101277.50;4980469;28;45802;-81
2022/05/02 20:59:03;;;;;;;;;48.00;38.00;;;;;25.12;30.27;101279.47;4940291;28;46003;-79
2022/05/02 21:01:30;;;;;;;;;42.50;35.25;;;;;25.08;30.34;101287.09;4977008;28;46397;-80
2022/05/02 21:03:57;;;;;;;;;47.00;35.75;;;;;25.10;30.21;101286.91;4993334;28;45761;-80
2022/05/02 21:06:23;;;;;;;;;50.75;36.75;;;;;24.57;31.17;101286.03;4993848;28;45594;-80
2022/05/02 21:08:49;;;;;;;;;52.50;37.50;;;;;25.47;29.89;101280.59;4995180;28;46426;-81
2022/05/02 21:11:39;;;;;;;;;42.75;33.50;;;;;24.87;30.29;101278.81;5005748;28;45832;-81
2022/05/02 21:14:20;;;;;;;;;40.75;33.75;;;;;24.73;30.68;101295.84;4992024;28;45860;-80
2022/05/02 21:16:51;;;;;;;;;45.75;36.00;;;;;24.41;31.15;101288.84;5009657;28;45812;-81
2022/05/02 21:19:52;;;;;;;;;43.50;32.75;;;;;24.42;31.33;101287.81;5008796;28;45578;-80
2022/05/02 21:22:32;;;;;;;;;46.50;36.25;;;;;25.24;29.78;101300.44;5007409;28;47136;-80
2022/05/02 21:25:20;;;;;;;;;42.75;34.00;;;;;25.32;30.18;101299.50;5000192;28;46270;-80
2022/05/02 21:28:10;;;;;;;;;45.75;35.00;;;;;24.72;30.78;101310.38;4998199;28;46490;-80
2022/05/02 21:30:59;;;;;;;;;48.25;33.75;;;;;37.86;17.73;101274.59;5007750;28;45662;-80
2022/05/02 21:33:26;;;;;;;;;48.75;36.50;;;;;39.61;16.31;101270.31;5000434;28;45602;-80
2022/05/02 21:35:54;;;;;;;;;46.00;35.25;;;;;31.05;22.03;101290.22;4999553;28;46159;-80
2022/05/02 21:38:25;;;;;;;;;39.50;31.50;;;;;26.23;28.19;101304.41;5019824;28;45331;-80
2022/05/02 21:40:51;;;;;;;;;46.50;37.75;;;;;25.69;29.13;101307.53;5001883;28;45494;-80
2022/05/02 21:43:19;;;;;;;;;50.50;35.25;;;;;25.07;29.98;101307.03;5000476;28;46306;-80
2022/05/02 21:45:44;;;;;;;;;49.00;36.00;;;;;24.86;30.32;101304.16;5018572;28;45633;-80
2022/05/02 21:48:11;;;;;;;;;49.25;36.75;;;;;25.03;30.63;101310.31;5010253;28;45417;-80
2022/05/02 21:50:38;;;;;;;;;49.25;38.25;;;;;25.36;29.80;101317.03;4999607;28;45326;-80
2022/05/02 21:53:03;;;;;;;;;47.25;36.75;;;;;25.17;29.99;101315.72;5009158;28;47093;-80
2022/05/02 21:55:29;;;;;;;;;46.75;36.75;;;;;24.96;30.72;101310.19;5015987;28;45321;-80
2022/05/02 21:57:55;;;;;;;;;47.00;37.00;;;;;24.92;30.48;101308.88;5020700;28;45846;-80
2022/05/02 22:00:22;;;;;;;;;41.50;35.75;;;;;24.79;30.48;101317.56;5024643;28;45511;-80
2022/05/02 22:02:49;;;;;;;;;47.50;32.25;;;;;24.92;30.57;101311.59;5004743;28;47278;-80
2022/05/02 22:05:14;;;;;;;;;47.25;32.00;;;;;24.64;30.64;101316.69;5023334;28;45437;-80
2022/05/02 22:07:39;;;;;;;;;42.25;34.75;;;;;24.78;30.82;101310.47;5020953;28;45377;-80
2022/05/02 22:10:06;;;;;;;;;44.25;34.50;;;;;24.81;31.10;101318.22;5021769;28;45414;-80
2022/05/02 22:12:32;;;;;;;;;47.00;36.25;;;;;24.88;30.40;101321.03;5015968;28;45479;-80
2022/05/02 22:14:57;;;;;;;;;39.75;33.50;;;;;24.86;30.60;101312.25;5019387;28;45408;-80
2022/05/02 22:17:22;;;;;;;;;50.00;36.75;;;;;30.31;27.20;101296.50;5026517;28;45494;-80
2022/05/02 22:19:48;;;;;;;;;40.50;33.00;;;;;27.42;26.50;101311.72;5015912;28;46178;-80
2022/05/02 22:22:13;;;;;;;;;42.75;35.00;;;;;25.98;28.84;101317.47;5003309;28;46390;-80
2022/05/02 22:24:39;;;;;;;;;42.25;34.25;;;;;25.62;29.23;101319.31;5022497;28;45404;-76
2022/05/02 22:27:04;;;;;;;;;43.00;33.25;;;;;24.73;30.50;101317.47;5023017;28;45386;-77
2022/05/02 22:29:30;;;;;;;;;44.75;35.50;;;;;24.56;30.98;101312.19;5022146;28;45481;-81
2022/05/02 22:31:57;;;;;;;;;42.00;34.00;;;;;24.41;31.18;101323.94;5013647;28;45781;-83
2022/05/02 22:34:23;;;;;;;;;44.00;36.50;;;;;25.50;29.41;101309.94;5017231;28;45528;-83
2022/05/02 22:36:48;;;;;;;;;40.00;30.25;;;;;24.51;31.23;101324.53;5013048;28;45549;-84
2022/05/02 22:39:13;;;;;;;;;48.25;37.00;;;;;24.52;31.36;101316.28;5022323;28;45438;-83
2022/05/02 22:41:39;;;;;;;;;46.75;36.00;;;;;24.34;31.39;101318.44;4998396;28;46126;-83
2022/05/02 22:44:04;;;;;;;;;44.00;33.25;;;;;24.39;31.47;101320.59;5020774;28;45406;-84
2022/05/02 22:46:30;;;;;;;;;38.00;33.00;;;;;24.45;31.24;101312.63;5004344;28;45347;-84
2022/05/02 22:48:55;;;;;;;;;35.00;31.50;;;;;25.03;30.34;101326.53;5000254;28;45806;-84
2022/05/02 22:51:21;;;;;;;;;48.25;32.00;;;;;24.29;31.80;101320.84;5013954;28;45554;-84
2022/05/02 22:53:46;;;;;;;;;41.50;34.00;;;;;24.12;31.52;101319.22;5022578;28;45582;-84
2022/05/02 22:56:13;;;;;;;;;45.50;33.00;;;;;24.15;31.75;101321.56;5007248;28;45803;-84
2022/05/02 22:58:43;;;;;;;;;34.25;27.75;;;;;24.06;31.93;101330.72;5016448;28;45475;-84
2022/05/02 23:01:08;;;;;;;;;44.00;31.50;;;;;25.35;29.75;101318.91;5002684;28;47732;-83
2022/05/02 23:03:50;;;;;;;;;47.25;33.25;;;;;24.28;31.45;101329.09;5005458;28;45495;-84
2022/05/02 23:06:33;;;;;;;;;38.50;33.00;;;;;24.90;30.48;101325.25;5024879;28;45456;-84
2022/05/02 23:08:59;;;;;;;;;42.50;32.75;;;;;25.10;30.12;101322.06;5019959;28;45424;-84
2022/05/02 23:11:25;;;;;;;;;41.50;31.00;;;;;24.90;30.61;101321.69;5022942;28;46241;-84
2022/05/02 23:13:51;;;;;;;;;41.50;35.00;;;;;25.21;30.33;101333.25;5022064;28;45282;-84
2022/05/02 23:16:18;;;;;;;;;38.75;31.75;;;;;24.82;30.32;101327.19;5019560;28;45519;-83
2022/05/02 23:18:44;;;;;;;;;37.75;31.00;;;;;24.06;32.17;101333.41;5018568;28;45564;-84
2022/05/02 23:21:16;;;;;;;;;32.50;27.00;;;;;23.89;32.28;101329.97;5001665;28;46265;-83
2022/05/02 23:23:42;;;;;;;;;42.75;35.00;;;;;23.74;31.79;101326.31;5017173;28;45350;-83
2022/05/02 23:26:09;;;;;;;;;49.25;34.00;;;;;24.13;31.45;101332.50;5004139;28;45530;-83
2022/05/02 23:28:35;;;;;;;;;42.00;34.25;;;;;25.26;29.46;101320.03;5021942;28;45242;-83
2022/05/02 23:31:21;;;;;;;;;37.00;31.00;;;;;24.03;31.75;101312.19;5003633;28;47008;-83
2022/05/02 23:34:30;;;;;;;;;31.00;27.75;;;;;22.97;32.42;101319.75;5021810;28;45376;-84
2022/05/02 23:36:58;;;;;;;;;40.25;33.00;;;;;22.51;33.51;101326.63;4973767;28;45540;-84
2022/05/02 23:39:39;;;;;;;;;41.25;33.25;;;;;24.14;31.63;101315.31;5021956;28;45357;-83
2022/05/02 23:42:05;;;;;;;;;37.25;32.50;;;;;24.86;30.50;101312.25;5003889;28;46918;-83
2022/05/02 23:44:53;;;;;;;;;36.75;29.00;;;;;22.98;33.21;101324.97;5021765;28;45675;-83
2022/05/02 23:47:31;;;;;;;;;47.00;34.00;;;;;22.86;32.93;101312.84;5021716;28;45273;-84
2022/05/02 23:50:06;;;;;;;;;37.00;32.25;;;;;22.70;33.54;101307.44;5020200;28;45626;-83
2022/05/02 23:52:59;;;;;;;;;37.75;31.50;;;;;22.61;33.74;101317.38;5022566;28;45518;-83
2022/05/02 23:55:52;;;;;;;;;40.75;33.25;;;;;22.72;33.39;101319.75;5004639;28;45262;-83
2022/05/02 23:58:36;;;;;;;;;40.75;30.00;;;;;22.84;33.72;101325.66;5025757;28;45412;-83
